Terminal Aerodrome Forecast
Issued by NWS

Home | Current Version | Previous Version | Graphics & Text | Print | Product List | Glossary On
Versions: 1 2 3 4 5 6 7 8 9 10 11 12 13 14 15 16 17 18 19 20 21 22 23 24 25
000
FTUS43 KABR 162000 AAB
TAFATY
TAF AMD
KATY 162050Z 1621/1718 03020G28KT 3SM -SN BLSN OVC015
     FM162100 03020G28KT P6SM OVC015
     FM170000 36016KT P6SM OVC015
     FM170700 01010KT P6SM OVC060=

USA.gov is the U.S. government's official web portal to all federal, state and local government web resources and services.